Time;durP1;ratioP1;P1;durP2;ratioP2;P2;SDS_P1;SDS_P2;PMS_P1;PMS_P2;Temp;Humidity;BMP_temperature;BMP_pressure;BME280_temperature;BME280_humidity;BME280_pressure;Samples;Min_cycle;Max_cycle;Signal;HPM_P1;HPM_P2
2023/01/28 00:00:50;;;;;;;;;;;;;;;21.79;24.63;96956.53;4995609;28;928;-76
2023/01/28 00:03:16;;;;;;;;;;;;;;;21.75;24.88;96953.06;4995059;28;1025;-77
2023/01/28 00:05:41;;;;;;;;;;;;;;;21.45;25.27;96956.81;4995313;28;1129;-76
2023/01/28 00:08:07;;;;;;;;;;;;;;;21.36;25.05;96956.81;4994929;28;939;-77
2023/01/28 00:10:32;;;;;;;;;;;;;;;21.24;25.24;96969.78;4995081;28;1116;-77
2023/01/28 00:12:58;;;;;;;;;;;;;;;21.89;24.37;96965.81;4995185;28;985;-77
2023/01/28 00:15:24;;;;;;;;;;;;;;;21.92;24.23;96969.78;4994797;28;1911;-77
2023/01/28 00:17:50;;;;;;;;;;;;;;;21.84;24.59;96975.72;4995390;28;1018;-76
2023/01/28 00:20:15;;;;;;;;;;;;;;;21.62;24.48;96977.91;5010985;28;978;-77
2023/01/28 00:22:40;;;;;;;;;;;;;;;21.37;25.28;96981.03;5017149;28;1040;-77
2023/01/28 00:25:06;;;;;;;;;;;;;;;21.22;25.17;96980.78;5016510;28;881;-77
2023/01/28 00:27:31;;;;;;;;;;;;;;;21.40;25.02;96974.41;5016908;28;1010;-77
2023/01/28 00:29:57;;;;;;;;;;;;;;;21.59;24.97;96981.69;4998197;28;1243;-77
2023/01/28 00:32:22;;;;;;;;;;;;;;;21.91;24.20;96979.50;5016745;28;912;-77
2023/01/28 00:34:51;;;;;;;;;;;;;;;21.93;24.42;96983.44;5016813;28;1217;-77
2023/01/28 00:37:16;;;;;;;;;;;;;;;21.76;24.30;96982.97;4998682;28;1906;-76
2023/01/28 00:39:42;;;;;;;;;;;;;;;21.27;25.14;96980.97;5016643;28;1182;-77
2023/01/28 00:42:07;;;;;;;;;;;;;;;21.17;25.14;96982.19;5016467;28;985;-77
2023/01/28 00:44:33;;;;;;;;;;;;;;;21.16;25.20;96977.78;5016678;28;948;-77
2023/01/28 00:47:01;;;;;;;;;;;;;;;20.78;25.15;96882.00;5016931;28;1081;-77
2023/01/28 00:49:27;;;;;;;;;;;;;;;21.64;24.51;96986.72;5016420;28;1011;-77
2023/01/28 00:51:52;;;;;;;;;;;;;;;22.00;24.17;96982.34;5016553;28;963;-77
2023/01/28 00:54:17;;;;;;;;;;;;;;;21.35;24.71;96992.00;5016470;28;939;-76
2023/01/28 00:56:43;;;;;;;;;;;;;;;21.36;25.04;96994.38;5016172;28;1973;-77
2023/01/28 00:59:08;;;;;;;;;;;;;;;21.59;24.71;96987.34;5015907;28;1061;-76
2023/01/28 01:01:34;;;;;;;;;;;;;;;22.08;23.78;96992.91;5016424;28;894;-77
2023/01/28 01:04:02;;;;;;;;;;;;;;;22.28;23.60;96998.09;5016549;28;994;-77
2023/01/28 01:06:30;;;;;;;;;;;;;;;21.59;24.42;97004.31;4999125;28;1132;-77
2023/01/28 01:08:58;;;;;;;;;;;;;;;21.30;25.05;96999.09;4998614;28;1380;-77
2023/01/28 01:11:23;;;;;;;;;;;;;;;21.59;24.43;97001.50;4999030;28;1276;-76
2023/01/28 01:13:50;;;;;;;;;;;;;;;22.57;23.31;96996.78;5016340;28;960;-76
2023/01/28 01:16:16;;;;;;;;;;;;;;;21.35;24.68;97003.31;5015852;28;1902;-76
2023/01/28 01:18:42;;;;;;;;;;;;;;;21.20;25.06;97006.72;5015922;28;856;-77
2023/01/28 01:21:11;;;;;;;;;;;;;;;20.97;25.40;97007.25;4998514;28;1186;-77
2023/01/28 01:23:37;;;;;;;;;;;;;;;21.50;24.51;97009.97;5015907;28;938;-77
2023/01/28 01:26:03;;;;;;;;;;;;;;;21.49;24.45;97011.22;4974701;28;1256;-77
2023/01/28 01:28:28;;;;;;;;;;;;;;;19.83;24.71;96754.63;4974808;28;1015;-77
2023/01/28 01:31:20;;;;;;;;;;;;;;;21.87;23.89;97010.03;4958892;28;1083;-77
2023/01/28 01:33:46;;;;;;;;;;;;;;;21.18;24.00;96924.34;4935905;29;1310;-76
2023/01/28 01:36:12;;;;;;;;;;;;;;;21.01;25.09;97013.56;4936436;29;1902;-77
2023/01/28 01:38:38;;;;;;;;;;;;;;;21.37;24.73;97009.31;4935746;29;1407;-77
2023/01/28 01:41:03;;;;;;;;;;;;;;;22.05;23.46;96999.50;4937550;29;1007;-77
2023/01/28 01:43:48;;;;;;;;;;;;;;;21.80;23.69;97014.72;4939960;29;979;-77
2023/01/28 01:46:14;;;;;;;;;;;;;;;21.27;24.45;97012.09;4940047;29;1231;-77
2023/01/28 01:48:40;;;;;;;;;;;;;;;21.50;24.29;97018.44;4940107;29;1064;-76
2023/01/28 01:51:09;;;;;;;;;;;;;;;21.82;23.72;97000.91;4939626;29;1206;-77
2023/01/28 01:53:35;;;;;;;;;;;;;;;22.66;22.68;97018.66;4923770;29;933;-77
2023/01/28 01:56:01;;;;;;;;;;;;;;;21.43;24.22;97019.53;4940970;29;1906;-76
2023/01/28 01:58:28;;;;;;;;;;;;;;;21.05;24.71;97022.69;4958758;29;1126;-77
2023/01/28 02:00:53;;;;;;;;;;;;;;;20.88;25.24;97024.16;4942982;29;1238;-77
2023/01/28 02:03:21;;;;;;;;;;;;;;;21.69;24.24;97020.06;4942799;29;1102;-77
2023/01/28 02:05:48;;;;;;;;;;;;;;;22.05;23.32;97021.38;4958893;29;981;-77
2023/01/28 02:08:24;;;;;;;;;;;;;;;22.56;22.86;97021.50;4958583;29;1238;-77
2023/01/28 02:10:52;;;;;;;;;;;;;;;21.33;24.16;97032.88;4983929;28;1042;-77
2023/01/28 02:13:19;;;;;;;;;;;;;;;20.97;25.01;97032.69;4977679;28;1231;-76
2023/01/28 02:15:45;;;;;;;;;;;;;;;21.58;24.27;97031.06;4961674;28;1902;-77
2023/01/28 02:18:10;;;;;;;;;;;;;;;22.43;22.94;97029.41;4961583;28;943;-77
2023/01/28 02:20:36;;;;;;;;;;;;;;;21.68;23.42;97032.66;4978001;28;955;-78
2023/01/28 02:23:31;;;;;;;;;;;;;;;21.24;24.24;97029.19;4977737;28;960;-76
2023/01/28 02:26:17;;;;;;;;;;;;;;;21.16;24.47;97034.38;4919954;29;1121;-77
2023/01/28 02:29:01;;;;;;;;;;;;;;;22.13;23.21;97025.50;4919871;29;963;-77
2023/01/28 02:31:29;;;;;;;;;;;;;;;21.87;23.27;97041.19;4904431;29;1200;-77
2023/01/28 02:33:54;;;;;;;;;;;;;;;22.08;23.17;97034.59;4919885;29;1185;-77
2023/01/28 02:36:26;;;;;;;;;;;;;;;21.87;23.26;97035.53;4919733;29;1992;-77
2023/01/28 02:38:51;;;;;;;;;;;;;;;21.49;23.67;97039.53;4903729;29;1186;-76
2023/01/28 02:41:26;;;;;;;;;;;;;;;21.73;23.49;97043.38;4904181;29;1070;-77
2023/01/28 02:43:51;;;;;;;;;;;;;;;21.68;23.52;97041.16;4903843;29;1086;-77
2023/01/28 02:49:02;;;;;;;;;;;;;;;21.67;23.20;97065.06;4904001;29;1472;-77
2023/01/28 02:51:27;;;;;;;;;;;;;;;21.94;22.97;97063.53;4933538;28;1165;-76
2023/01/28 02:53:56;;;;;;;;;;;;;;;21.57;23.39;97064.25;4956860;29;1153;-77
2023/01/28 02:56:28;;;;;;;;;;;;;;;21.45;23.65;97072.84;4955981;29;1983;-77
2023/01/28 02:58:59;;;;;;;;;;;;;;;21.64;23.12;97073.69;4957436;28;1299;-77
2023/01/28 03:01:29;;;;;;;;;;;;;;;21.26;23.62;97075.59;4962604;28;1340;-77
2023/01/28 03:03:59;;;;;;;;;;;;;;;21.03;24.08;97076.09;5014011;28;925;-77
2023/01/28 03:06:29;;;;;;;;;;;;;;;21.25;23.93;97082.50;5014049;28;919;-77
2023/01/28 03:36:46;;;;;;;;;;;;;;;20.99;23.67;97092.44;4996887;28;1899;-76
2023/01/28 03:39:28;;;;;;;;;;;;;;;22.16;22.26;97101.03;4996538;28;1510;-77
2023/01/28 03:41:57;;;;;;;;;;;;;;;22.48;21.55;97090.34;5012957;28;1005;-77
2023/01/28 03:47:10;;;;;;;;;;;;;;;21.04;23.84;97103.94;5010549;28;1028;-78
2023/01/28 03:49:37;;;;;;;;;;;;;;;21.52;23.28;97106.53;4996749;28;1175;-77
2023/01/28 03:52:03;;;;;;;;;;;;;;;22.44;21.61;97113.19;4980681;28;1294;-77
2023/01/28 03:54:28;;;;;;;;;;;;;;;20.74;21.72;96859.53;4996726;28;1395;-77
2023/01/28 03:56:54;;;;;;;;;;;;;;;21.60;22.52;97113.47;4996713;28;1898;-77
2023/01/28 03:59:20;;;;;;;;;;;;;;;21.71;22.46;97113.84;4996313;28;1259;-76
2023/01/28 04:01:45;;;;;;;;;;;;;;;22.03;22.16;97120.22;4996778;28;1083;-77
2023/01/28 04:04:21;;;;;;;;;;;;;;;21.76;22.50;97118.06;4996076;28;1288;-77
2023/01/28 04:06:47;;;;;;;;;;;;;;;21.46;22.58;97122.56;4964714;28;1136;-76
2023/01/28 04:09:22;;;;;;;;;;;;;;;21.78;22.54;97124.06;5011745;28;1308;-80
2023/01/28 04:11:53;;;;;;;;;;;;;;;21.56;22.47;97132.66;4998038;28;1187;-77
2023/01/28 04:14:26;;;;;;;;;;;;;;;20.85;23.59;97133.34;4978748;28;1169;-77
2023/01/28 04:16:56;;;;;;;;;;;;;;;21.40;22.86;97141.38;4979488;28;1972;-76
2023/01/28 04:19:24;;;;;;;;;;;;;;;20.99;23.20;97134.84;4995004;28;1325;-76
2023/01/28 04:21:52;;;;;;;;;;;;;;;21.09;23.05;97147.81;4962090;28;928;-77
2023/01/28 04:24:18;;;;;;;;;;;;;;;20.99;23.19;97146.94;4978723;28;1097;-76
2023/01/28 04:26:44;;;;;;;;;;;;;;;21.59;22.39;97157.19;4978761;28;1199;-76
2023/01/28 04:29:09;;;;;;;;;;;;;;;22.38;21.60;97157.56;4978707;28;1147;-76
2023/01/28 04:31:36;;;;;;;;;;;;;;;22.09;21.79;97155.16;4994609;28;1095;-76
2023/01/28 04:34:20;;;;;;;;;;;;;;;21.44;22.71;97168.28;4994552;28;947;-76
2023/01/28 04:37:05;;;;;;;;;;;;;;;20.77;23.43;97165.94;4994679;28;1915;-77
2023/01/28 04:40:00;;;;;;;;;;;;;;;22.17;21.56;97167.78;4955505;29;1138;-77
2023/01/28 04:42:55;;;;;;;;;;;;;;;21.65;22.14;97166.66;4917500;29;1003;-76
2023/01/28 04:45:31;;;;;;;;;;;;;;;21.43;22.70;97163.88;4876840;29;1284;-77
2023/01/28 04:48:17;;;;;;;;;;;;;;;21.38;22.74;97163.69;4898439;29;1212;-77
2023/01/28 04:50:54;;;;;;;;;;;;;;;21.11;22.99;97167.13;4898674;29;1153;-77
2023/01/28 04:53:32;;;;;;;;;;;;;;;22.19;21.52;97167.31;4898448;29;1327;-76
2023/01/28 04:56:04;;;;;;;;;;;;;;;21.93;21.73;97164.72;4898789;29;1919;-76
2023/01/28 04:58:32;;;;;;;;;;;;;;;21.53;22.27;97164.72;4882876;29;1083;-76
2023/01/28 05:01:02;;;;;;;;;;;;;;;21.20;22.64;97165.16;4883183;29;1157;-76
2023/01/28 05:03:28;;;;;;;;;;;;;;;21.42;22.46;97170.00;4882632;29;1236;-77
2023/01/28 05:05:54;;;;;;;;;;;;;;;22.19;21.64;97170.94;4883119;29;1182;-77
2023/01/28 05:08:30;;;;;;;;;;;;;;;21.86;21.84;97170.66;4898500;29;1164;-77
2023/01/28 05:10:55;;;;;;;;;;;;;;;21.48;22.41;97166.09;4882855;29;1395;-77
2023/01/28 05:13:21;;;;;;;;;;;;;;;21.17;22.75;97177.38;4898447;29;1241;-77
2023/01/28 05:15:49;;;;;;;;;;;;;;;21.67;22.05;97175.47;4879042;29;1978;-76
2023/01/28 05:18:15;;;;;;;;;;;;;;;21.73;22.14;97178.47;4888062;29;918;-77
2023/01/28 05:20:46;;;;;;;;;;;;;;;21.87;21.64;97191.28;4959627;29;1256;-76
2023/01/28 05:23:11;;;;;;;;;;;;;;;21.70;22.02;97191.50;4959828;29;1287;-76
2023/01/28 05:25:47;;;;;;;;;;;;;;;21.45;22.53;97195.34;4996259;28;1061;-76
2023/01/28 05:28:13;;;;;;;;;;;;;;;21.40;22.34;97195.13;4983007;28;1092;-77
2023/01/28 05:30:39;;;;;;;;;;;;;;;22.30;21.53;97204.50;4999085;28;1378;-77
2023/01/28 05:33:05;;;;;;;;;;;;;;;22.38;20.87;97196.47;5000346;28;917;-77
2023/01/28 05:35:30;;;;;;;;;;;;;;;21.35;22.19;97210.69;4999079;28;1910;-76
2023/01/28 05:37:56;;;;;;;;;;;;;;;21.20;22.80;97221.72;5000183;28;923;-76
2023/01/28 05:40:21;;;;;;;;;;;;;;;20.90;23.30;97222.44;5012161;28;1081;-76
2023/01/28 05:42:47;;;;;;;;;;;;;;;22.03;21.49;97219.34;4979488;28;1290;-76
2023/01/28 05:45:33;;;;;;;;;;;;;;;22.02;21.63;97229.09;5011952;28;1162;-77
2023/01/28 05:48:02;;;;;;;;;;;;;;;22.21;21.21;97225.09;5001523;28;1378;-76
2023/01/28 05:50:45;;;;;;;;;;;;;;;21.45;22.16;97228.50;5003120;28;1256;-76
2023/01/28 05:53:19;;;;;;;;;;;;;;;21.26;22.45;97234.03;5000600;28;967;-77
2023/01/28 05:55:48;;;;;;;;;;;;;;;21.47;22.09;97237.34;5000727;28;1911;-77
2023/01/28 05:58:14;;;;;;;;;;;;;;;21.88;21.84;97243.84;5017268;28;943;-77
2023/01/28 06:00:39;;;;;;;;;;;;;;;21.98;21.49;97251.13;5000661;28;1208;-76
2023/01/28 06:03:05;;;;;;;;;;;;;;;21.79;21.89;97255.91;4985944;28;1539;-77
2023/01/28 06:05:33;;;;;;;;;;;;;;;21.25;22.65;97255.09;4992114;28;1562;-77
2023/01/28 06:07:59;;;;;;;;;;;;;;;21.00;22.91;97266.53;4981185;28;1223;-77
2023/01/28 06:10:25;;;;;;;;;;;;;;;21.35;22.59;97269.31;4981149;28;1155;-77
2023/01/28 06:12:50;;;;;;;;;;;;;;;21.77;21.75;97276.19;4997178;28;1269;-77
2023/01/28 06:15:34;;;;;;;;;;;;;;;21.96;21.45;97284.78;4997016;28;1965;-78
2023/01/28 06:18:12;;;;;;;;;;;;;;;21.65;21.78;97285.56;4978192;28;1246;-78
2023/01/28 06:20:38;;;;;;;;;;;;;;;21.29;22.58;97281.19;4978798;28;1179;-77
2023/01/28 06:23:04;;;;;;;;;;;;;;;21.28;22.47;97279.63;4979070;28;1110;-77
2023/01/28 06:25:30;;;;;;;;;;;;;;;21.84;21.85;97287.25;4979952;28;995;-77
2023/01/28 06:27:59;;;;;;;;;;;;;;;21.87;21.66;97291.19;4995211;28;1219;-77
2023/01/28 06:30:25;;;;;;;;;;;;;;;21.94;21.42;97290.91;4978721;28;948;-78
2023/01/28 06:32:54;;;;;;;;;;;;;;;21.40;22.06;97292.16;4979779;28;858;-76
2023/01/28 06:35:20;;;;;;;;;;;;;;;21.33;22.20;97287.53;4979859;28;1035;-77
2023/01/28 06:37:46;;;;;;;;;;;;;;;21.41;22.13;97298.63;4979519;28;1973;-77
2023/01/28 06:40:11;;;;;;;;;;;;;;;21.52;22.00;97301.84;5008674;28;1613;-77
2023/01/28 06:42:37;;;;;;;;;;;;;;;21.66;22.04;97298.47;5018806;28;973;-77
2023/01/28 06:45:02;;;;;;;;;;;;;;;21.89;21.72;97304.88;5018795;28;984;-77
2023/01/28 06:47:28;;;;;;;;;;;;;;;21.31;22.13;97307.03;5018102;28;866;-77
2023/01/28 06:49:53;;;;;;;;;;;;;;;21.27;22.31;97309.16;5018602;28;1112;-77
2023/01/28 06:52:18;;;;;;;;;;;;;;;21.05;22.98;97309.16;5018217;28;966;-77
2023/01/28 06:54:44;;;;;;;;;;;;;;;21.54;22.00;97302.16;5018458;28;1027;-77
2023/01/28 06:57:09;;;;;;;;;;;;;;;21.76;21.62;97311.44;5018488;28;1910;-77
2023/01/28 06:59:35;;;;;;;;;;;;;;;21.81;21.53;97315.69;5018086;28;935;-77
2023/01/28 07:02:00;;;;;;;;;;;;;;;21.78;21.42;97311.75;5018530;28;1025;-77
2023/01/28 07:04:26;;;;;;;;;;;;;;;21.37;22.12;97320.59;5017902;28;996;-77
2023/01/28 07:06:51;;;;;;;;;;;;;;;21.25;22.22;97314.50;5018306;28;999;-77
2023/01/28 07:09:16;;;;;;;;;;;;;;;21.65;21.64;97313.06;5017889;28;960;-77
2023/01/28 07:11:42;;;;;;;;;;;;;;;21.88;21.47;97325.97;5018323;28;986;-77
2023/01/28 07:14:07;;;;;;;;;;;;;;;22.19;20.95;97318.28;5017981;28;901;-77
2023/01/28 07:16:33;;;;;;;;;;;;;;;21.40;22.21;97319.66;5017899;28;1976;-76
2023/01/28 07:18:58;;;;;;;;;;;;;;;21.02;22.79;97326.22;5018144;28;1057;-77
2023/01/28 07:21:24;;;;;;;;;;;;;;;21.24;22.32;97320.59;5018039;28;938;-78
2023/01/28 07:23:49;;;;;;;;;;;;;;;21.77;21.61;97327.16;5017577;28;1001;-77
2023/01/28 07:26:15;;;;;;;;;;;;;;;22.00;21.23;97316.59;5017849;28;932;-77
2023/01/28 07:28:40;;;;;;;;;;;;;;;21.36;21.98;97333.16;5000530;28;999;-77
2023/01/28 07:31:06;;;;;;;;;;;;;;;21.16;22.32;97328.56;5017751;28;916;-77
2023/01/28 07:33:31;;;;;;;;;;;;;;;21.29;22.40;97320.81;5017804;28;952;-77
2023/01/28 07:35:57;;;;;;;;;;;;;;;22.16;21.16;97329.75;5017644;28;1895;-77
2023/01/28 07:38:22;;;;;;;;;;;;;;;21.98;21.44;97319.91;5016985;28;883;-78
2023/01/28 07:40:49;;;;;;;;;;;;;;;21.30;22.10;97322.44;5016746;28;1054;-77
2023/01/28 07:43:14;;;;;;;;;;;;;;;21.08;22.40;97318.75;4999185;28;924;-77
2023/01/28 07:45:40;;;;;;;;;;;;;;;21.35;22.15;97306.91;5017545;28;1000;-77
2023/01/28 07:48:06;;;;;;;;;;;;;;;22.27;20.84;97319.56;5017551;28;862;-77
2023/01/28 07:50:32;;;;;;;;;;;;;;;22.01;21.01;97318.94;5016012;28;1115;-77
2023/01/28 07:52:58;;;;;;;;;;;;;;;21.35;21.95;97314.59;5016154;28;965;-77
2023/01/28 07:55:24;;;;;;;;;;;;;;;20.94;22.66;97310.78;5017478;28;919;-77
2023/01/28 07:57:52;;;;;;;;;;;;;;;21.38;22.08;97316.50;5017118;28;1931;-77
2023/01/28 08:00:18;;;;;;;;;;;;;;;21.83;21.27;97314.00;5017344;28;1007;-77
2023/01/28 08:02:49;;;;;;;;;;;;;;;21.90;21.51;97312.13;5017306;28;951;-76
2023/01/28 08:05:15;;;;;;;;;;;;;;;21.74;21.62;97299.78;5016874;28;1131;-78
2023/01/28 08:07:41;;;;;;;;;;;;;;;21.69;21.56;97308.84;5017218;28;947;-77
2023/01/28 08:10:06;;;;;;;;;;;;;;;21.40;21.78;97311.16;5017119;28;963;-78
2023/01/28 08:12:32;;;;;;;;;;;;;;;21.30;21.81;97310.34;5017018;28;1028;-77
2023/01/28 08:14:57;;;;;;;;;;;;;;;21.50;21.85;97316.47;5016828;28;1171;-77
2023/01/28 08:17:23;;;;;;;;;;;;;;;22.38;20.53;97307.00;5017065;28;1918;-76
2023/01/28 08:19:48;;;;;;;;;;;;;;;21.75;21.17;97318.34;5016815;28;1023;-77
2023/01/28 08:22:14;;;;;;;;;;;;;;;21.39;21.79;97323.75;5016309;28;1474;-76
2023/01/28 08:24:39;;;;;;;;;;;;;;;21.26;22.02;97326.63;5016948;28;1043;-77
2023/01/28 08:27:04;;;;;;;;;;;;;;;21.94;21.00;97327.72;5016408;28;981;-77
2023/01/28 08:29:31;;;;;;;;;;;;;;;21.96;21.03;97322.38;5016819;28;922;-77
2023/01/28 08:31:56;;;;;;;;;;;;;;;22.23;20.67;97329.50;5016353;28;964;-77
2023/01/28 08:34:22;;;;;;;;;;;;;;;22.23;20.79;97329.50;5016670;28;954;-77
2023/01/28 08:36:47;;;;;;;;;;;;;;;21.61;21.22;97323.75;5016442;28;1906;-77
2023/01/28 08:39:12;;;;;;;;;;;;;;;21.16;21.77;97331.41;4994402;28;1209;-77
2023/01/28 08:41:38;;;;;;;;;;;;;;;21.43;21.77;97335.72;4996948;28;907;-77
2023/01/28 08:44:03;;;;;;;;;;;;;;;22.24;20.70;97340.34;4996910;28;883;-77
2023/01/28 08:46:29;;;;;;;;;;;;;;;22.12;20.51;97334.78;4996786;28;930;-77
2023/01/28 08:48:54;;;;;;;;;;;;;;;21.39;21.64;97337.91;4996399;28;1166;-78
2023/01/28 08:51:20;;;;;;;;;;;;;;;21.26;21.79;97332.28;4995982;28;900;-77
2023/01/28 08:53:45;;;;;;;;;;;;;;;21.23;21.72;97333.19;4996784;28;1041;-77
2023/01/28 08:56:10;;;;;;;;;;;;;;;21.50;21.54;97318.47;4996793;28;1971;-77
2023/01/28 08:58:36;;;;;;;;;;;;;;;22.13;20.79;97319.38;4996783;28;950;-77
2023/01/28 09:01:05;;;;;;;;;;;;;;;22.25;20.38;97309.97;4997077;28;983;-78
2023/01/28 09:03:31;;;;;;;;;;;;;;;21.89;20.81;97299.22;4996515;28;972;-77
2023/01/28 09:06:00;;;;;;;;;;;;;;;21.86;20.75;97306.59;4996512;28;1250;-78
2023/01/28 09:08:26;;;;;;;;;;;;;;;21.61;21.08;97307.56;4996774;28;903;-77
2023/01/28 09:10:58;;;;;;;;;;;;;;;21.54;21.48;97302.16;4994480;28;962;-78
2023/01/28 09:13:23;;;;;;;;;;;;;;;21.18;21.92;97311.91;4996765;28;983;-76
2023/01/28 09:15:50;;;;;;;;;;;;;;;21.38;21.54;97310.84;4996402;28;1985;-76
2023/01/28 09:18:15;;;;;;;;;;;;;;;22.10;20.53;97298.38;4996335;28;961;-76
2023/01/28 09:20:41;;;;;;;;;;;;;;;22.11;20.44;97288.66;4996411;28;900;-76
2023/01/28 09:23:06;;;;;;;;;;;;;;;21.19;21.65;97292.91;4996782;28;1133;-76
2023/01/28 09:25:32;;;;;;;;;;;;;;;21.42;21.40;97288.88;4996173;28;989;-77
2023/01/28 09:27:57;;;;;;;;;;;;;;;21.85;20.81;97297.31;4996423;28;988;-77
2023/01/28 09:30:23;;;;;;;;;;;;;;;22.64;19.81;97302.72;4995256;28;1147;-77
2023/01/28 09:32:49;;;;;;;;;;;;;;;21.73;20.94;97309.53;4996238;28;921;-77
2023/01/28 09:35:15;;;;;;;;;;;;;;;21.36;21.32;97319.03;4996290;28;976;-77
2023/01/28 09:37:40;;;;;;;;;;;;;;;20.90;22.02;97313.72;4996159;28;1971;-76
2023/01/28 09:40:06;;;;;;;;;;;;;;;22.26;20.54;97323.66;5009130;28;1640;-77
2023/01/28 09:42:41;;;;;;;;;;;;;;;22.04;20.56;97322.91;5015790;28;1497;-77
2023/01/28 09:45:16;;;;;;;;;;;;;;;22.10;20.58;97333.19;4997683;28;1574;-77
2023/01/28 09:47:46;;;;;;;;;;;;;;;21.83;20.85;97330.97;5014243;28;1541;-77
2023/01/28 09:50:16;;;;;;;;;;;;;;;21.59;20.81;97341.19;4989958;28;1635;-77
2023/01/28 09:52:42;;;;;;;;;;;;;;;21.12;21.48;97350.53;4996197;28;946;-78
2023/01/28 09:55:24;;;;;;;;;;;;;;;21.35;21.52;97348.53;4995814;28;1116;-77
2023/01/28 09:57:50;;;;;;;;;;;;;;;21.98;20.71;97355.94;4977496;28;1894;-77
2023/01/28 10:00:18;;;;;;;;;;;;;;;21.77;20.76;97349.81;4977540;28;987;-77
2023/01/28 10:02:44;;;;;;;;;;;;;;;22.12;20.51;97352.56;4998667;28;978;-77
2023/01/28 10:05:15;;;;;;;;;;;;;;;22.07;20.45;97351.13;4999658;28;912;-77
2023/01/28 10:07:42;;;;;;;;;;;;;;;21.52;21.23;97355.63;4977681;28;1092;-77
2023/01/28 10:10:15;;;;;;;;;;;;;;;21.31;21.42;97352.31;4961878;28;1059;-77
2023/01/28 10:12:43;;;;;;;;;;;;;;;21.85;20.82;97345.47;4967106;28;1615;-78
2023/01/28 10:15:08;;;;;;;;;;;;;;;22.23;20.26;97347.28;4985806;28;1516;-78
2023/01/28 10:17:36;;;;;;;;;;;;;;;21.39;21.38;97352.03;4988263;28;2033;-77
2023/01/28 10:20:05;;;;;;;;;;;;;;;21.22;21.22;97349.38;4969378;28;1547;-76
2023/01/28 10:22:50;;;;;;;;;;;;;;;21.65;21.18;97350.66;4986983;28;1582;-77
2023/01/28 10:25:23;;;;;;;;;;;;;;;21.95;20.36;97349.13;4987604;28;1605;-77
2023/01/28 10:27:49;;;;;;;;;;;;;;;21.24;21.58;97340.41;4967320;28;1605;-77
2023/01/28 10:30:18;;;;;;;;;;;;;;;21.00;21.95;97332.34;4997027;28;1005;-77
2023/01/28 10:32:49;;;;;;;;;;;;;;;20.93;21.83;97335.41;4997112;28;1026;-77
2023/01/28 10:35:15;;;;;;;;;;;;;;;21.43;21.09;97344.22;4980325;28;979;-78
2023/01/28 10:37:40;;;;;;;;;;;;;;;21.50;21.11;97341.13;4980932;28;1903;-78
2023/01/28 10:40:06;;;;;;;;;;;;;;;21.88;20.65;97328.81;4999433;28;1257;-77
2023/01/28 10:42:35;;;;;;;;;;;;;;;21.51;20.96;97331.41;4998338;28;879;-77
2023/01/28 10:45:20;;;;;;;;;;;;;;;21.37;21.31;97315.72;5012815;28;1057;-77
2023/01/28 10:47:46;;;;;;;;;;;;;;;21.16;21.33;97311.59;4998501;28;1020;-77
2023/01/28 10:50:21;;;;;;;;;;;;;;;21.44;21.13;97309.00;4999166;28;877;-77
2023/01/28 10:52:53;;;;;;;;;;;;;;;21.72;20.83;97316.44;4998987;28;990;-77
2023/01/28 10:55:19;;;;;;;;;;;;;;;21.84;20.55;97323.28;4998619;28;1013;-78
2023/01/28 10:57:44;;;;;;;;;;;;;;;21.88;20.65;97320.31;4997685;28;1914;-77
2023/01/28 11:00:30;;;;;;;;;;;;;;;21.32;21.21;97339.72;4998849;28;943;-77
2023/01/28 11:02:55;;;;;;;;;;;;;;;21.23;21.28;97347.31;4998268;28;1002;-76
2023/01/28 11:05:21;;;;;;;;;;;;;;;21.44;21.43;97357.13;4999109;28;965;-77
2023/01/28 11:07:49;;;;;;;;;;;;;;;21.70;20.99;97367.06;4998894;28;923;-78
2023/01/28 11:10:44;;;;;;;;;;;;;;;21.75;20.97;97357.19;4998431;28;1009;-77
2023/01/28 11:13:22;;;;;;;;;;;;;;;21.73;21.08;97371.81;4975918;28;993;-77
2023/01/28 11:15:51;;;;;;;;;;;;;;;21.54;20.99;97364.44;4977017;28;1906;-77
2023/01/28 11:18:17;;;;;;;;;;;;;;;21.16;21.79;97376.66;4976614;28;989;-77
2023/01/28 11:20:48;;;;;;;;;;;;;;;21.61;21.22;97374.72;4985119;28;1587;-78
2023/01/28 11:23:17;;;;;;;;;;;;;;;21.55;21.20;97372.47;4971267;28;1557;-77
2023/01/28 11:25:42;;;;;;;;;;;;;;;21.72;20.91;97370.25;4976438;28;2288;-78
2023/01/28 11:28:14;;;;;;;;;;;;;;;21.96;20.50;97373.38;4971723;28;1578;-77
2023/01/28 11:30:39;;;;;;;;;;;;;;;21.45;20.97;97378.50;4963834;28;1593;-77
2023/01/28 11:33:11;;;;;;;;;;;;;;;21.13;21.45;97373.94;4976810;28;1008;-77
2023/01/28 11:35:36;;;;;;;;;;;;;;;20.93;21.92;97380.66;4976458;28;910;-77
2023/01/28 11:38:02;;;;;;;;;;;;;;;21.77;20.79;97386.63;4976172;28;1923;-77
2023/01/28 11:40:27;;;;;;;;;;;;;;;22.16;20.47;97381.53;4976484;28;1086;-78
2023/01/28 11:42:55;;;;;;;;;;;;;;;21.52;21.14;97372.59;4976532;28;1009;-77
2023/01/28 11:45:23;;;;;;;;;;;;;;;21.20;21.65;97377.34;4976327;28;993;-77
2023/01/28 11:47:52;;;;;;;;;;;;;;;21.46;21.11;97371.63;4956474;29;928;-77
2023/01/28 11:50:25;;;;;;;;;;;;;;;22.25;20.01;97367.44;4972367;28;983;-77
2023/01/28 11:52:56;;;;;;;;;;;;;;;21.98;20.30;97359.56;4959756;28;999;-77
2023/01/28 11:55:40;;;;;;;;;;;;;;;21.26;21.27;97355.69;4976104;28;1032;-78
2023/01/28 11:58:06;;;;;;;;;;;;;;;21.04;21.51;97354.88;4976044;28;967;-77
2023/01/28 12:00:37;;;;;;;;;;;;;;;21.91;20.67;97356.97;4975601;28;975;-78
2023/01/28 12:03:08;;;;;;;;;;;;;;;22.20;19.92;97342.53;4975730;28;956;-77
2023/01/28 12:05:45;;;;;;;;;;;;;;;21.65;20.86;97345.00;4975713;28;1001;-77
2023/01/28 12:08:23;;;;;;;;;;;;;;;21.62;20.71;97343.13;4956174;28;1012;-77
2023/01/28 12:10:51;;;;;;;;;;;;;;;21.72;20.72;97352.47;4940525;28;1043;-78
2023/01/28 12:13:17;;;;;;;;;;;;;;;22.24;20.03;97354.53;4956050;29;928;-77
2023/01/28 12:15:56;;;;;;;;;;;;;;;22.15;20.12;97351.63;4956172;28;1963;-78
2023/01/28 12:18:30;;;;;;;;;;;;;;;22.50;19.91;97345.81;4940418;28;992;-77
2023/01/28 12:21:07;;;;;;;;;;;;;;;22.26;19.85;97363.34;4956132;28;994;-78
2023/01/28 12:23:36;;;;;;;;;;;;;;;22.14;20.25;97367.06;4940493;28;1065;-77
2023/01/28 12:26:05;;;;;;;;;;;;;;;21.48;20.82;97371.94;4971937;28;982;-77
2023/01/28 12:28:31;;;;;;;;;;;;;;;21.19;21.25;97372.94;4979688;28;1631;-77
2023/01/28 12:31:11;;;;;;;;;;;;;;;21.53;21.03;97374.19;4985095;28;1522;-78
2023/01/28 12:33:53;;;;;;;;;;;;;;;21.91;20.30;97381.69;4975145;28;1155;-77
2023/01/28 12:36:18;;;;;;;;;;;;;;;22.01;20.48;97374.81;4958912;28;1910;-77
2023/01/28 12:38:47;;;;;;;;;;;;;;;22.15;19.91;97373.53;4981999;28;1033;-77
2023/01/28 12:41:13;;;;;;;;;;;;;;;21.47;20.92;97371.16;4995864;28;1012;-78
2023/01/28 12:43:54;;;;;;;;;;;;;;;21.12;21.13;97373.16;4996789;28;1013;-77
2023/01/28 12:46:22;;;;;;;;;;;;;;;21.63;20.74;97377.88;4996750;28;955;-77
2023/01/28 12:48:49;;;;;;;;;;;;;;;22.07;20.08;97367.28;4997151;28;1009;-77
2023/01/28 12:51:15;;;;;;;;;;;;;;;21.83;20.26;97376.28;4995468;28;948;-77
2023/01/28 12:53:58;;;;;;;;;;;;;;;21.86;20.25;97371.72;4995870;28;966;-77
2023/01/28 12:56:34;;;;;;;;;;;;;;;21.21;21.18;97376.09;5012033;28;1894;-78
2023/01/28 12:59:04;;;;;;;;;;;;;;;21.66;20.76;97372.09;4996772;28;948;-76
2023/01/28 13:01:50;;;;;;;;;;;;;;;22.28;20.10;97377.84;4995689;28;961;-76
2023/01/28 13:04:34;;;;;;;;;;;;;;;22.66;19.09;97388.09;5003568;28;1250;-76
2023/01/28 13:07:05;;;;;;;;;;;;;;;21.54;20.67;97389.91;5014710;28;1301;-76
2023/01/28 13:09:31;;;;;;;;;;;;;;;21.21;21.30;97393.06;5014168;28;1430;-76
2023/01/28 13:11:57;;;;;;;;;;;;;;;21.68;20.72;97400.72;4998522;28;1483;-76
2023/01/28 13:14:24;;;;;;;;;;;;;;;22.29;19.80;97402.09;4998391;28;946;-76
2023/01/28 13:16:50;;;;;;;;;;;;;;;21.88;20.27;97399.63;4998427;28;1981;-77
2023/01/28 13:19:18;;;;;;;;;;;;;;;21.29;20.89;97410.56;5016103;28;963;-76
2023/01/28 13:21:44;;;;;;;;;;;;;;;21.33;21.09;97412.06;5015793;28;1139;-76
2023/01/28 13:24:11;;;;;;;;;;;;;;;21.91;20.19;97421.34;4998588;28;1076;-76
2023/01/28 13:26:40;;;;;;;;;;;;;;;22.05;19.96;97409.47;5016232;28;1060;-76
2023/01/28 13:29:06;;;;;;;;;;;;;;;21.50;20.69;97415.53;5016200;28;1030;-76
2023/01/28 13:31:36;;;;;;;;;;;;;;;21.20;21.15;97433.13;5016055;28;958;-76
2023/01/28 13:34:02;;;;;;;;;;;;;;;20.87;21.38;97429.78;4998477;28;925;-76
2023/01/28 13:36:43;;;;;;;;;;;;;;;22.07;20.13;97440.94;5016331;28;1969;-77
2023/01/28 13:39:21;;;;;;;;;;;;;;;22.06;20.08;97439.38;5019902;28;1017;-76
2023/01/28 13:41:47;;;;;;;;;;;;;;;21.25;20.87;97450.31;5019633;28;943;-76